createdAt,value
2022-11-26T00:01:49.831Z,69.57
2022-11-26T00:04:16.495Z,69.37
2022-11-26T00:30:17.049Z,90.00
2022-11-26T00:32:43.607Z,60.20
2022-11-26T00:43:03.022Z,63.38
2022-11-26T00:45:31.432Z,72.70
2022-11-26T00:50:41.373Z,65.68
2022-11-26T00:53:12.051Z,58.85
2022-11-26T00:58:21.683Z,65.85
2022-11-26T01:00:48.325Z,104.15
2022-11-26T01:03:14.940Z,63.65
2022-11-26T01:05:41.535Z,65.40
2022-11-26T01:08:27.925Z,78.72
2022-11-26T01:14:35.971Z,75.22
2022-11-26T01:17:03.267Z,58.35
2022-11-26T01:19:29.873Z,69.50
2022-11-26T01:21:56.441Z,67.45
2022-11-26T01:24:42.950Z,70.78
2022-11-26T01:27:12.760Z,75.37
2022-11-26T01:29:39.388Z,92.05
2022-11-26T01:32:06.032Z,64.50
2022-11-26T01:34:32.614Z,77.70
2022-11-26T01:37:21.082Z,85.10
2022-11-26T01:42:42.471Z,80.47
2022-11-26T01:45:18.261Z,73.87
2022-11-26T01:47:48.612Z,61.20
2022-11-26T01:54:24.028Z,84.50
2022-11-26T01:57:06.530Z,95.00
2022-11-26T01:59:38.297Z,80.97
2022-11-26T02:02:07.701Z,143.48
2022-11-26T02:05:07.897Z,77.97
2022-11-26T02:07:35.515Z,54.47
2022-11-26T02:10:20.671Z,67.20
2022-11-26T02:13:01.463Z,64.68
2022-11-26T02:15:45.707Z,66.97
2022-11-26T02:18:21.258Z,80.57
2022-11-26T02:30:04.906Z,66.82
2022-11-26T02:32:46.998Z,74.62
2022-11-26T02:38:25.021Z,72.07
2022-11-26T02:41:09.303Z,59.20
2022-11-26T02:46:23.186Z,64.70
2022-11-26T03:12:49.728Z,68.53
2022-11-26T03:15:16.342Z,97.05
2022-11-26T03:18:25.865Z,74.37
2022-11-26T03:27:01.561Z,78.85
2022-11-26T03:29:28.280Z,63.63
2022-11-26T03:34:31.735Z,73.37
2022-11-26T03:36:58.306Z,78.07
2022-11-26T03:42:20.533Z,81.95
2022-11-26T03:44:47.251Z,72.62
2022-11-26T03:56:01.735Z,109.87
2022-11-26T03:58:32.428Z,133.80
2022-11-26T04:01:10.107Z,139.02
2022-11-26T04:06:11.974Z,153.18
2022-11-26T04:08:42.373Z,93.20
2022-11-26T04:11:10.151Z,105.15
2022-11-26T04:13:39.789Z,76.28
2022-11-26T04:16:06.677Z,90.40
2022-11-26T04:21:21.854Z,69.05
2022-11-26T04:23:50.615Z,79.75
2022-11-26T04:26:17.493Z,69.95
2022-11-26T04:28:44.681Z,101.82
2022-11-26T04:31:11.644Z,80.12
2022-11-26T04:33:38.340Z,73.55
2022-11-26T04:36:05.554Z,86.78
2022-11-26T04:38:50.707Z,103.07
2022-11-26T04:41:17.336Z,106.20
2022-11-26T04:44:05.553Z,96.70
2022-11-26T04:46:32.261Z,114.75
2022-11-26T04:52:34.016Z,81.80
2022-11-26T04:55:00.546Z,99.10
2022-11-26T04:57:27.143Z,90.57
2022-11-26T04:59:53.822Z,58.90
2022-11-26T05:02:20.419Z,69.15
2022-11-26T05:04:47.020Z,100.05
2022-11-26T05:07:13.674Z,99.13
2022-11-26T05:09:40.271Z,69.20
2022-11-26T05:12:07.224Z,73.82
2022-11-26T05:14:33.772Z,71.95
2022-11-26T05:17:00.403Z,87.03
2022-11-26T05:19:27.032Z,76.15
2022-11-26T05:22:15.435Z,112.65
2022-11-26T05:24:42.003Z,82.22
2022-11-26T05:27:13.079Z,64.80
2022-11-26T05:29:39.677Z,62.05
2022-11-26T05:33:01.923Z,70.37
2022-11-26T05:36:07.510Z,74.40
2022-11-26T05:38:35.525Z,63.95
2022-11-26T05:41:02.120Z,67.32
2022-11-26T05:43:31.368Z,74.37
2022-11-26T05:46:03.865Z,87.97
2022-11-26T05:48:30.517Z,50.92
2022-11-26T05:50:58.821Z,90.53
2022-11-26T05:53:25.622Z,76.60
2022-11-26T05:55:52.156Z,79.12
2022-11-26T05:58:18.764Z,65.32
2022-11-26T06:00:46.303Z,64.80
2022-11-26T06:03:17.033Z,61.40
2022-11-26T06:25:28.875Z,55.65
2022-11-26T06:27:56.059Z,61.42
2022-11-26T06:30:22.802Z,58.83
2022-11-26T06:32:49.691Z,69.75
2022-11-26T06:38:11.801Z,51.22
2022-11-26T06:40:38.371Z,53.03
2022-11-26T06:53:45.758Z,41.67
2022-11-26T06:56:18.564Z,45.47
2022-11-26T06:58:47.428Z,74.07
2022-11-26T07:01:23.807Z,50.40
2022-11-26T07:03:50.957Z,52.47
2022-11-26T07:06:22.376Z,59.95
2022-11-26T07:08:49.934Z,43.72
2022-11-26T07:11:16.753Z,50.50
2022-11-26T07:13:44.066Z,78.35
2022-11-26T07:16:29.368Z,49.75
2022-11-26T07:19:02.500Z,50.80
2022-11-26T07:21:30.332Z,47.67
2022-11-26T07:23:57.020Z,52.20
2022-11-26T07:26:24.111Z,46.45
2022-11-26T07:28:51.086Z,43.65
2022-11-26T07:31:20.911Z,46.00
2022-11-26T07:33:48.441Z,48.67
2022-11-26T07:36:25.264Z,48.33
2022-11-26T07:38:54.742Z,56.40
2022-11-26T07:41:21.504Z,52.22
2022-11-26T07:43:48.216Z,52.00
2022-11-26T07:46:18.064Z,48.85
2022-11-26T07:48:45.337Z,47.78
2022-11-26T07:51:29.684Z,56.42
2022-11-26T07:53:58.952Z,48.80
2022-11-26T08:01:36.940Z,49.10
2022-11-26T08:04:05.535Z,56.33
2022-11-26T08:06:33.954Z,45.12
2022-11-26T08:09:02.193Z,49.58
2022-11-26T08:11:31.156Z,47.88
2022-11-26T08:14:01.896Z,38.88
2022-11-26T08:16:29.248Z,47.05
2022-11-26T08:19:02.324Z,41.92
2022-11-26T08:21:29.211Z,39.95
2022-11-26T08:23:55.865Z,43.75
2022-11-26T08:26:30.667Z,65.55
2022-11-26T08:29:00.958Z,49.17
2022-11-26T08:31:28.459Z,44.80
2022-11-26T08:33:59.252Z,47.58
2022-11-26T08:46:59.851Z,49.63
2022-11-26T08:49:26.444Z,44.10
2022-11-26T08:51:55.791Z,48.63
2022-11-26T08:54:23.555Z,53.87
2022-11-26T08:56:50.156Z,48.60
2022-11-26T08:59:17.582Z,48.17
2022-11-26T09:01:44.223Z,47.95
2022-11-26T09:04:10.855Z,49.05
2022-11-26T09:06:37.792Z,56.63
2022-11-26T09:09:15.028Z,54.30
2022-11-26T09:11:56.246Z,50.15
2022-11-26T09:14:27.309Z,46.35
2022-11-26T09:33:05.796Z,34.85
2022-11-26T09:35:32.463Z,35.70
2022-11-26T09:37:59.048Z,31.00
2022-11-26T09:40:38.332Z,29.17
2022-11-26T09:43:12.769Z,25.17
2022-11-26T09:45:46.955Z,25.35
2022-11-26T09:48:21.581Z,25.88
2022-11-26T09:50:51.598Z,26.27
2022-11-26T09:53:27.947Z,23.85
2022-11-26T09:55:56.378Z,24.55
2022-11-26T09:58:40.343Z,28.70
2022-11-26T10:01:14.011Z,37.88
2022-11-26T10:03:42.367Z,40.28
2022-11-26T10:06:11.029Z,37.20
2022-11-26T10:09:14.687Z,37.65
2022-11-26T10:12:00.102Z,32.28
2022-11-26T10:14:46.173Z,37.55
2022-11-26T10:28:27.997Z,43.33
2022-11-26T10:31:03.195Z,47.03
2022-11-26T10:33:36.848Z,45.90
2022-11-26T10:36:09.216Z,42.25
2022-11-26T10:38:35.771Z,38.20
2022-11-26T10:41:02.309Z,36.95
2022-11-26T10:43:30.517Z,43.13
2022-11-26T10:45:57.316Z,43.58
2022-11-26T10:48:26.761Z,42.03
2022-11-26T10:51:00.240Z,39.25
2022-11-26T10:53:28.298Z,43.03
2022-11-26T10:55:59.250Z,39.25
2022-11-26T10:58:33.146Z,38.75
2022-11-26T11:01:03.556Z,36.55
2022-11-26T11:04:06.611Z,40.35
2022-11-26T11:06:34.799Z,37.38
2022-11-26T11:09:14.542Z,37.42
2022-11-26T11:11:41.212Z,39.55
2022-11-26T11:14:27.349Z,45.65
2022-11-26T11:16:54.013Z,40.92
2022-11-26T11:19:24.772Z,40.75
2022-11-26T11:21:51.969Z,38.63
2022-11-26T11:24:23.318Z,37.45
2022-11-26T11:26:55.222Z,37.47
2022-11-26T11:32:34.648Z,34.40
2022-11-26T11:35:20.414Z,33.83
2022-11-26T11:37:52.729Z,37.80
2022-11-26T11:40:25.326Z,37.60
2022-11-26T11:42:58.919Z,38.33
2022-11-26T11:45:34.654Z,41.00
2022-11-26T11:48:30.480Z,37.83
2022-11-26T11:51:19.730Z,37.17
2022-11-26T11:54:17.033Z,42.33
2022-11-26T11:56:55.408Z,42.05
2022-11-26T11:59:58.173Z,42.78
2022-11-26T12:02:46.831Z,39.67
2022-11-26T12:05:38.713Z,37.40
2022-11-26T12:08:17.755Z,41.13
2022-11-26T12:11:32.611Z,39.13
2022-11-26T12:14:20.350Z,38.38
2022-11-26T12:16:52.523Z,36.40
2022-11-26T12:19:42.651Z,43.90
2022-11-26T12:22:26.944Z,42.50
2022-11-26T12:25:03.218Z,38.75
2022-11-26T12:27:58.217Z,41.08
2022-11-26T12:30:35.599Z,38.83
2022-11-26T12:33:12.741Z,38.22
2022-11-26T12:35:56.396Z,39.20
2022-11-26T12:38:34.745Z,38.10
2022-11-26T12:41:03.639Z,36.40
2022-11-26T12:44:05.583Z,36.80
2022-11-26T12:46:44.646Z,44.40
2022-11-26T12:49:23.484Z,38.92
2022-11-26T12:52:17.229Z,40.08
2022-11-26T12:54:59.125Z,36.65
2022-11-26T12:57:44.621Z,36.53
2022-11-26T13:00:17.368Z,26.83
2022-11-26T13:02:48.924Z,30.45
2022-11-26T13:05:20.162Z,26.35
2022-11-26T13:08:19.082Z,26.67
2022-11-26T13:11:10.694Z,29.08
2022-11-26T13:13:38.450Z,27.65
2022-11-26T13:16:24.102Z,28.95
2022-11-26T13:18:56.370Z,28.08
2022-11-26T13:21:40.125Z,28.48
2022-11-26T13:24:27.841Z,26.37
2022-11-26T13:26:54.526Z,28.52
2022-11-26T13:29:46.389Z,28.62
2022-11-26T13:32:13.389Z,30.70
2022-11-26T13:35:05.203Z,36.72
2022-11-26T13:38:18.563Z,36.47
2022-11-26T13:41:17.610Z,33.75
2022-11-26T13:44:23.978Z,32.33
2022-11-26T13:47:06.246Z,27.52
2022-11-26T13:50:18.947Z,26.27
2022-11-26T13:52:53.329Z,23.92
2022-11-26T13:55:49.055Z,26.70
2022-11-26T13:58:23.885Z,28.05
2022-11-26T14:11:40.272Z,29.75
2022-11-26T14:14:25.155Z,27.98
2022-11-26T14:17:00.510Z,30.02
2022-11-26T14:19:42.520Z,30.75
2022-11-26T14:22:11.768Z,31.40
2022-11-26T14:25:04.159Z,30.62
2022-11-26T14:27:37.212Z,31.65
2022-11-26T14:33:07.737Z,28.92
2022-11-26T14:55:38.540Z,32.80
2022-11-26T14:58:14.058Z,31.20
2022-11-26T15:00:40.619Z,32.47
2022-11-26T15:03:23.716Z,29.70
2022-11-26T15:05:50.394Z,32.50
2022-11-26T15:08:20.219Z,30.65
2022-11-26T15:11:02.656Z,28.62
2022-11-26T15:25:15.510Z,34.78
2022-11-26T15:28:17.608Z,36.25
2022-11-26T15:31:02.344Z,33.97
2022-11-26T15:33:34.437Z,36.13
2022-11-26T15:36:10.408Z,38.10
2022-11-26T15:57:56.033Z,34.72
2022-11-26T16:00:36.377Z,35.38
2022-11-26T16:03:05.174Z,33.05
2022-11-26T16:05:39.398Z,34.78
2022-11-26T16:28:13.964Z,32.05
2022-11-26T16:30:43.913Z,31.37
2022-11-26T16:33:11.186Z,37.42
2022-11-26T16:35:46.703Z,36.28
2022-11-26T16:38:25.435Z,36.08
2022-11-26T16:40:52.493Z,35.40
2022-11-26T16:43:19.221Z,34.63
2022-11-26T16:45:48.207Z,35.97
2022-11-26T16:48:27.141Z,34.75
2022-11-26T16:50:55.293Z,36.58
2022-11-26T16:53:22.468Z,36.00
2022-11-26T16:55:50.161Z,40.38
2022-11-26T16:58:26.440Z,37.47
2022-11-26T17:00:53.749Z,43.58
2022-11-26T17:03:22.732Z,44.05
2022-11-26T17:05:54.015Z,43.20
2022-11-26T17:08:20.645Z,44.05
2022-11-26T17:10:47.690Z,48.05
2022-11-26T17:13:15.550Z,56.55
2022-11-26T17:15:43.019Z,106.78
2022-11-26T17:18:21.914Z,115.18
2022-11-26T17:20:49.245Z,69.53
2022-11-26T17:23:16.641Z,61.80
2022-11-26T17:25:51.412Z,80.87
2022-11-26T17:34:04.036Z,64.00
2022-11-26T17:36:36.789Z,61.03
2022-11-26T17:39:03.856Z,53.75
2022-11-26T17:41:43.600Z,48.58
2022-11-26T17:44:10.163Z,47.35
2022-11-26T17:47:00.956Z,49.28
2022-11-26T17:49:23.449Z,41.70
2022-11-26T17:51:49.995Z,38.72
2022-11-26T17:54:16.561Z,35.95
2022-11-26T17:56:43.135Z,37.80
2022-11-26T17:59:09.763Z,41.47
2022-11-26T18:01:36.445Z,48.40
2022-11-26T18:04:03.226Z,52.55
2022-11-26T18:06:48.560Z,45.15
2022-11-26T18:09:15.130Z,41.83
2022-11-26T18:11:47.548Z,42.83
2022-11-26T18:14:14.139Z,40.53
2022-11-26T18:16:44.042Z,41.22
2022-11-26T18:19:12.756Z,53.67
2022-11-26T18:21:45.794Z,44.08
2022-11-26T18:26:43.404Z,46.65
2022-11-26T18:29:10.534Z,48.42
2022-11-26T18:31:39.729Z,48.35
2022-11-26T18:34:07.492Z,52.72
2022-11-26T18:36:34.261Z,52.30
2022-11-26T18:39:03.954Z,60.63
2022-11-26T18:41:30.687Z,59.50
2022-11-26T18:43:57.436Z,51.70
2022-11-26T18:46:24.101Z,60.28
2022-11-26T18:48:51.073Z,48.83
2022-11-26T18:51:18.126Z,52.92
2022-11-26T18:53:45.314Z,50.10
2022-11-26T18:56:17.203Z,51.17
2022-11-26T18:58:44.563Z,46.03
2022-11-26T19:01:20.361Z,46.95
2022-11-26T19:03:47.023Z,55.08
2022-11-26T19:06:16.942Z,60.03
2022-11-26T19:08:43.819Z,50.53
2022-11-26T19:11:12.912Z,57.90
2022-11-26T19:13:39.491Z,58.85
2022-11-26T19:16:14.488Z,64.97
2022-11-26T19:18:43.100Z,56.60
2022-11-26T19:21:39.332Z,57.33
2022-11-26T19:24:07.991Z,51.85
2022-11-26T19:26:36.971Z,54.88
2022-11-26T19:29:05.717Z,58.92
2022-11-26T19:31:35.996Z,55.47
2022-11-26T19:34:08.894Z,51.03
2022-11-26T19:44:41.650Z,58.47
2022-11-26T19:47:08.325Z,63.55
2022-11-26T19:49:34.849Z,63.90
2022-11-26T19:52:23.897Z,62.38
2022-11-26T19:55:15.966Z,58.60
2022-11-26T19:57:42.512Z,57.62
2022-11-26T20:00:09.807Z,57.65
2022-11-26T20:02:36.506Z,58.58
2022-11-26T20:05:04.761Z,58.22
2022-11-26T20:07:31.358Z,57.25
2022-11-26T20:10:22.825Z,59.95
2022-11-26T20:12:49.351Z,54.13
2022-11-26T20:17:51.147Z,58.17
2022-11-26T20:20:39.637Z,51.97
2022-11-26T20:47:04.989Z,56.37
2022-11-26T20:49:34.620Z,53.42
2022-11-26T20:52:03.570Z,59.17
2022-11-26T20:58:41.750Z,58.10
2022-11-26T21:01:30.341Z,56.42
2022-11-26T21:03:58.299Z,56.67
2022-11-26T21:06:30.506Z,59.85
2022-11-26T21:09:01.788Z,56.55
2022-11-26T21:11:29.737Z,54.60
2022-11-26T21:13:58.730Z,62.83
2022-11-26T21:16:27.495Z,58.80
2022-11-26T21:18:54.871Z,67.90
2022-11-26T21:21:22.993Z,61.03
2022-11-26T21:23:49.921Z,55.85
2022-11-26T21:26:19.041Z,69.60
2022-11-26T21:28:50.838Z,62.33
2022-11-26T21:31:18.606Z,55.90
2022-11-26T21:33:46.450Z,63.60
2022-11-26T21:36:16.068Z,59.55
2022-11-26T21:38:43.433Z,61.10
2022-11-26T21:41:12.608Z,61.08
2022-11-26T21:43:43.695Z,64.10
2022-11-26T21:46:14.818Z,62.97
2022-11-26T21:48:41.577Z,59.05
2022-11-26T21:51:10.416Z,63.00
2022-11-26T21:53:37.183Z,66.25
2022-11-26T21:56:08.641Z,58.05
2022-11-26T21:58:37.059Z,61.20
2022-11-26T22:03:40.966Z,69.47
2022-11-26T22:06:08.270Z,62.88
2022-11-26T22:08:35.161Z,65.90
2022-11-26T22:11:08.052Z,65.03
2022-11-26T22:13:34.594Z,59.78
2022-11-26T22:16:43.939Z,63.05
2022-11-26T22:19:38.726Z,62.90
2022-11-26T22:22:05.743Z,66.50
2022-11-26T22:24:32.648Z,62.22
2022-11-26T22:26:59.501Z,63.42
2022-11-26T22:29:26.150Z,64.70
2022-11-26T22:48:26.037Z,67.40
2022-11-26T22:51:12.594Z,71.82
2022-11-26T22:54:06.994Z,61.40
2022-11-26T22:56:34.514Z,65.72
2022-11-26T22:59:01.610Z,66.40
2022-11-26T23:01:30.921Z,64.50
2022-11-26T23:04:25.257Z,70.07
2022-11-26T23:06:51.800Z,65.78
2022-11-26T23:09:18.435Z,66.03
2022-11-26T23:11:45.515Z,64.57
2022-11-26T23:14:12.434Z,62.60
2022-11-26T23:16:40.987Z,65.22
2022-11-26T23:19:32.387Z,63.75
2022-11-26T23:21:59.040Z,61.67
2022-11-26T23:24:26.950Z,63.83
2022-11-26T23:26:53.518Z,65.53
2022-11-26T23:36:43.810Z,69.82
2022-11-26T23:39:37.239Z,81.07
2022-11-26T23:42:09.673Z,86.47
